Amy E. Hebert — WDH6709 — position and weather

sailwx.info

Track history (hours):
 
Tides and Currents Weather Stations Pressure Air Temp Water Temp Dewpoint Dewpoint Depression Visibility Wind Speed Wind Dir Waves Ship Positions

Amy E. Hebert

Owner: Gulf Coast Tugs, Inc., Larose, LA. More information available from US FCC via Universal Licensing System and Coast Guard Vessel Documentation Center.

Last reported at 2018-May-14 19:55 UTC. Time now 2018-Jul-22 22:04 UTC.
Position N 27°45' W 082°37'.
Warning: this ship's position is months out of date.

Length 35 m; draft 4 m.

MMSI: 367640860.

Date/timePositionNaut miles runAvg speedWind from/ knotsBaromVisibWave heightAir tempDewpointWater temp
2018-May-14 19:55N 27°45' W 082°37'1 2.1
2018-May-14 19:23N 27°46' W 082°38'5 0.4
2018-May-14 07:32N 27°41' W 082°37'1 4.3
2018-May-14 07:12N 27°42' W 082°37'1 4.1
2018-May-14 06:54N 27°43' W 082°37'2 3.8
2018-May-14 06:30N 27°45' W 082°37'1 2.5
2018-May-14 06:00N 27°46' W 082°38'0 0.1
2018-May-14 05:13N 27°46' W 082°38'3 7.3
2018-May-14 04:46N 27°47' W 082°35'2 8.6
2018-May-14 04:30N 27°50' W 082°34'3 7.0
2018-May-14 04:00N 27°53' W 082°33'1 1.2
2018-May-14 03:30N 27°53' W 082°32'0 0.0
2018-May-14 03:00N 27°53' W 082°32'0 0.0
2018-May-14 02:30N 27°53' W 082°32'0 0.0
2018-May-14 02:00N 27°53' W 082°32'0 0.0
2018-May-14 01:30N 27°53' W 082°32'0 0.0
2018-May-14 00:56N 27°53' W 082°32'0 0.0
2018-May-14 00:30N 27°53' W 082°32'0 0.1
2018-May-14 00:00N 27°53' W 082°32'0 0.0
2018-May-13 23:29N 27°53' W 082°32'0 0.0
2018-May-13 22:59N 27°53' W 082°32'0 0.0
2018-May-13 22:30N 27°53' W 082°32'0 0.0
2018-May-13 22:00N 27°53' W 082°32'0 0.0
2018-May-13 21:30N 27°53' W 082°32'0 0.0
2018-May-13 21:00N 27°53' W 082°32'0 0.0
2018-May-13 20:30N 27°53' W 082°32'0 0.0
2018-May-13 20:00N 27°53' W 082°32'0 0.1
2018-May-13 19:30N 27°53' W 082°32'0 0.0
2018-May-13 19:00N 27°53' W 082°32'0 0.0
2018-May-13 18:29N 27°53' W 082°32'0 0.0
2018-May-13 18:00N 27°53' W 082°32'0 0.0
2018-May-13 17:30N 27°53' W 082°32'0 0.4
2018-May-13 17:00N 27°53' W 082°33'611.1
2018-May-13 16:30N 27°48' W 082°34'4 0.1
2018-May-12 15:09N 27°45' W 082°31'1 4.0
2018-May-12 15:00N 27°46' W 082°31'2 3.5
2018-May-12 14:29N 27°47' W 082°33'2 3.6
2018-May-12 14:00N 27°48' W 082°34'2 3.7
2018-May-12 13:30N 27°50' W 082°34'2 3.7
2018-May-12 13:00N 27°52' W 082°33'1 2.6
2018-May-12 12:30N 27°53' W 082°33'0 0.2
2018-May-12 12:00N 27°53' W 082°33'0 0.0
2018-May-12 11:30N 27°53' W 082°33'0 0.0
2018-May-12 11:00N 27°53' W 082°33'0 0.0
2018-May-12 10:30N 27°53' W 082°33'0 0.0
2018-May-12 10:00N 27°53' W 082°33'0 0.6
2018-May-12 09:29N 27°53' W 082°32'0 0.0
2018-May-12 09:00N 27°53' W 082°32'0 0.0
2018-May-12 08:30N 27°53' W 082°32'0 0.0
2018-May-12 08:00N 27°53' W 082°32'0 0.0
2018-May-12 07:30N 27°53' W 082°32'0 0.0
2018-May-12 07:00N 27°53' W 082°32'0 0.0
2018-May-12 06:30N 27°53' W 082°32'0 0.0
2018-May-12 06:00N 27°53' W 082°32'0 0.0
2018-May-12 05:30N 27°53' W 082°32'0 0.0
2018-May-12 05:00N 27°53' W 082°32'0 0.0
2018-May-12 04:30N 27°53' W 082°32'0 0.0
2018-May-12 04:00N 27°53' W 082°32'0 0.0
2018-May-12 03:30N 27°53' W 082°32'0 0.0
2018-May-12 02:59N 27°53' W 082°32'0 0.0
2018-May-12 02:30N 27°53' W 082°32'0 0.0
2018-May-12 02:00N 27°53' W 082°32'0 0.0
2018-May-12 01:30N 27°53' W 082°32'0 0.0
2018-May-12 00:57N 27°53' W 082°32'0 0.0
2018-May-12 00:25N 27°53' W 082°32'0 0.0
2018-May-11 23:58N 27°53' W 082°32'0 0.0
2018-May-11 23:19N 27°53' W 082°32'0 0.0
2018-May-11 22:58N 27°53' W 082°32'0 0.0
2018-May-11 22:29N 27°53' W 082°32'0 0.0
2018-May-11 21:53N 27°53' W 082°32'0 0.0
2018-May-11 21:30N 27°53' W 082°32'0 0.0
2018-May-11 21:00N 27°53' W 082°32'2 3.8
2018-May-11 20:30N 27°52' W 082°33'2 4.3
2018-May-11 20:00N 27°50' W 082°34'2 4.1
2018-May-11 19:30N 27°48' W 082°34'2 4.3
2018-May-11 19:00N 27°46' W 082°36'2 0.7
2018-May-11 16:56N 27°46' W 082°38'0 0.0
2018-May-11 14:39N 27°46' W 082°38'0 0.4
2018-May-11 14:30N 27°46' W 082°38'3 5.2
2018-May-11 13:50N 27°47' W 082°35'2 5.2
2018-May-11 13:30N 27°49' W 082°34'3 5.1
2018-May-11 13:00N 27°52' W 082°33'2 3.3
2018-May-11 12:30N 27°53' W 082°33'0 0.7
2018-May-11 12:00N 27°53' W 082°32'0 0.3
2018-May-11 11:30N 27°53' W 082°32'0 0.3
2018-May-11 11:00N 27°53' W 082°32'0 0.0
2018-May-11 10:30N 27°53' W 082°32'0 0.1
2018-May-11 10:00N 27°53' W 082°32'0 0.0
2018-May-11 09:30N 27°53' W 082°32'0 0.0
2018-May-11 09:00N 27°53' W 082°32'0 0.0
2018-May-11 08:30N 27°53' W 082°32'0 0.0
2018-May-11 08:00N 27°53' W 082°32'0 0.0
2018-May-11 07:29N 27°53' W 082°32'0 0.0
2018-May-11 07:00N 27°53' W 082°32'0 0.0
2018-May-11 06:30N 27°53' W 082°32'0 0.0
2018-May-11 06:00N 27°53' W 082°32'0 0.0
2018-May-11 05:30N 27°53' W 082°32'0 0.0
2018-May-11 04:58N 27°53' W 082°32'0 0.0
2018-May-11 04:30N 27°53' W 082°32'0 0.0
2018-May-11 04:00N 27°53' W 082°32'0 0.0
2018-May-11 03:30N 27°53' W 082°32'0 0.0
2018-May-11 03:00N 27°53' W 082°32'0 0.0
2018-May-11 02:30N 27°53' W 082°32'0 0.0
2018-May-11 02:00N 27°53' W 082°32'0 0.0
2018-May-11 01:30N 27°53' W 082°32'0 0.0
2018-May-11 00:59N 27°53' W 082°32'0 0.0
2018-May-11 00:30N 27°53' W 082°32'0 0.0
2018-May-11 00:00N 27°53' W 082°32'0 0.0
2018-May-10 23:30N 27°53' W 082°32'0 0.0
2018-May-10 23:00N 27°53' W 082°32'0 0.1
2018-May-10 22:30N 27°53' W 082°32'5 9.7
2018-May-10 22:00N 27°49' W 082°34'4 4.0
2018-May-10 20:56N 27°46' W 082°37'3 7.9
2018-May-10 20:30N 27°48' W 082°34'5 9.6
2018-May-10 20:00N 27°52' W 082°33'1 2.5
2018-May-10 19:29N 27°53' W 082°32'0 0.0
2018-May-10 19:00N 27°53' W 082°32'0 0.0
2018-May-10 18:30N 27°53' W 082°32'0 0.0
2018-May-10 18:00N 27°53' W 082°32'0 0.0
2018-May-10 17:30N 27°53' W 082°32'0 0.0
2018-May-10 17:00N 27°53' W 082°32'0 0.0
2018-May-10 16:30N 27°53' W 082°32'0 0.0
2018-May-10 16:00N 27°53' W 082°32'0 0.1
2018-May-10 15:30N 27°53' W 082°32'0 0.0
2018-May-10 15:00N 27°53' W 082°32'0 0.7
2018-May-10 14:29N 27°53' W 082°33'0 0.0
2018-May-10 14:00N 27°53' W 082°33'0 0.0
2018-May-10 13:30N 27°53' W 082°33'0 0.9
2018-May-10 13:00N 27°53' W 082°32'0 0.0
2018-May-10 12:30N 27°53' W 082°32'0 0.0
2018-May-10 12:00N 27°53' W 082°32'0 0.0
2018-May-10 11:29N 27°53' W 082°32'0 0.0
2018-May-10 11:00N 27°53' W 082°32'0 0.0
2018-May-10 10:30N 27°53' W 082°32'4 6.9
2018-May-10 10:00N 27°50' W 082°34'4 9.0
2018-May-10 09:30N 27°46' W 082°36'2 0.2
2018-May-09 22:29N 27°44' W 082°37'5 9.5
2018-May-09 22:00N 27°48' W 082°34'510.4
2018-May-09 21:30N 27°53' W 082°33'0 0.1
2018-May-09 21:00N 27°53' W 082°33'4 7.5
2018-May-09 20:29N 27°50' W 082°34'4 7.9
2018-May-09 19:59N 27°46' W 082°36'1 1.0
2018-May-09 19:14N 27°46' W 082°37'3 7.3
2018-May-09 18:50N 27°48' W 082°34'2 6.7
2018-May-09 18:30N 27°50' W 082°34'4 7.6
2018-May-09 18:00N 27°53' W 082°33'0 0.4
2018-May-09 17:30N 27°53' W 082°32'0 0.0
2018-May-09 17:00N 27°53' W 082°32'0 0.0
2018-May-09 16:28N 27°53' W 082°32'0 0.0
2018-May-09 15:58N 27°53' W 082°32'0 0.1
2018-May-09 15:30N 27°53' W 082°32'0 0.0
2018-May-09 15:00N 27°53' W 082°32'0 0.0
2018-May-09 14:30N 27°53' W 082°32'0 0.0
2018-May-09 14:00N 27°53' W 082°32'0 0.2
2018-May-09 13:30N 27°53' W 082°32'0 0.0
2018-May-09 13:00N 27°53' W 082°32'0 0.1
2018-May-09 12:27N 27°53' W 082°32'0 0.3
2018-May-09 12:00N 27°53' W 082°32'0 0.1
2018-May-09 11:29N 27°53' W 082°32'0 0.0
2018-May-09 11:00N 27°53' W 082°32'0 0.0
2018-May-09 10:30N 27°53' W 082°32'0 0.0
2018-May-09 09:59N 27°53' W 082°32'0 0.0
2018-May-09 09:30N 27°53' W 082°32'0 0.0
2018-May-09 09:00N 27°53' W 082°32'0 0.0
2018-May-09 08:30N 27°53' W 082°32'0 0.0
2018-May-09 07:58N 27°53' W 082°32'0 0.0
2018-May-09 07:29N 27°53' W 082°32'0 0.0
2018-May-09 06:58N 27°53' W 082°32'0 0.0
2018-May-09 06:29N 27°53' W 082°32'0 0.0
2018-May-09 06:00N 27°53' W 082°32'0 0.0
2018-May-09 05:30N 27°53' W 082°32'0 0.0
2018-May-09 04:59N 27°53' W 082°32'1 2.4
2018-May-09 04:30N 27°52' W 082°33'4 7.2
2018-May-09 04:00N 27°49' W 082°34'5 0.9
2018-May-08 22:40N 27°44' W 082°37'2 9.5
2018-May-08 22:29N 27°46' W 082°37'4 9.1
2018-May-08 22:00N 27°50' W 082°34'4 7.8
2018-May-08 21:30N 27°53' W 082°32'0 0.1
2018-May-08 21:00N 27°53' W 082°32'0 0.0
2018-May-08 20:30N 27°53' W 082°32'0 0.0
2018-May-08 20:00N 27°53' W 082°32'0 0.0
2018-May-08 19:30N 27°53' W 082°32'0 0.1
2018-May-08 19:00N 27°53' W 082°32'0 0.1
2018-May-08 18:30N 27°53' W 082°32'0 0.0
2018-May-08 18:00N 27°53' W 082°32'0 0.2
2018-May-08 17:30N 27°53' W 082°32'0 0.1
2018-May-08 17:00N 27°53' W 082°32'0 0.0
2018-May-08 15:43N 27°53' W 082°32'0 0.0
2018-May-08 15:25N 27°53' W 082°32'0 0.0
2018-May-08 15:00N 27°53' W 082°32'0 0.1
2018-May-08 14:30N 27°53' W 082°32'0 0.0
2018-May-08 14:00N 27°53' W 082°32'0 0.0
2018-May-08 13:30N 27°53' W 082°32'0 0.0
2018-May-08 13:00N 27°53' W 082°32'0 0.0
2018-May-08 12:25N 27°53' W 082°32'0 0.0
2018-May-08 11:40N 27°53' W 082°32'0 0.0
2018-May-08 11:22N 27°53' W 082°32'0 0.1
2018-May-08 11:00N 27°53' W 082°32'0 0.3
2018-May-08 10:30N 27°53' W 082°32'0 0.1
2018-May-08 10:00N 27°53' W 082°32'0 0.0
2018-May-08 09:30N 27°53' W 082°32'0 0.0
2018-May-08 09:00N 27°53' W 082°32'0 0.0
2018-May-08 08:29N 27°53' W 082°32'0 0.0
2018-May-08 08:00N 27°53' W 082°32'0 0.0
2018-May-08 07:29N 27°53' W 082°32'0 0.0
2018-May-08 07:00N 27°53' W 082°32'0 0.0
2018-May-08 06:28N 27°53' W 082°32'0 0.0
2018-May-08 06:00N 27°53' W 082°32'0 0.0
2018-May-08 05:30N 27°53' W 082°32'0 0.0
2018-May-08 05:00N 27°53' W 082°32'0 0.0
2018-May-08 04:30N 27°53' W 082°32'0 0.0
2018-May-08 04:00N 27°53' W 082°32'0 0.0
2018-May-08 03:30N 27°53' W 082°32'0 0.0
2018-May-08 03:00N 27°53' W 082°32'0 0.0
2018-May-08 02:30N 27°53' W 082°32'0 0.0
2018-May-08 02:00N 27°53' W 082°32'0 0.0
2018-May-08 01:28N 27°53' W 082°32'0 0.0
2018-May-08 00:59N 27°53' W 082°32'0 0.0
2018-May-08 00:30N 27°53' W 082°32'0 0.0
2018-May-08 00:00N 27°53' W 082°32'0 0.0
2018-May-07 23:30N 27°53' W 082°32'0 0.0
2018-May-07 23:00N 27°53' W 082°32'0 0.0
2018-May-07 22:30N 27°53' W 082°32'0 0.0
2018-May-07 22:00N 27°53' W 082°32'0 0.0
2018-May-07 21:30N 27°53' W 082°32'0 0.0
2018-May-07 21:00N 27°53' W 082°32'0 0.0
2018-May-07 20:30N 27°53' W 082°32'0 0.0
2018-May-07 20:00N 27°53' W 082°32'0 0.0
2018-May-07 19:29N 27°53' W 082°32'0 0.0
2018-May-07 19:00N 27°53' W 082°32'0 0.0
2018-May-07 18:30N 27°53' W 082°32'0 0.0
2018-May-07 18:00N 27°53' W 082°32'0 0.0
2018-May-07 17:29N 27°53' W 082°32'0 0.0
2018-May-07 17:00N 27°53' W 082°32'0 0.0
2018-May-07 16:30N 27°53' W 082°32'0 0.0
2018-May-07 16:00N 27°53' W 082°32'0 0.0
2018-May-07 15:30N 27°53' W 082°32'0 0.0
2018-May-07 14:59N 27°53' W 082°32'0 0.0
2018-May-07 14:30N 27°53' W 082°32'0 0.0
2018-May-07 14:00N 27°53' W 082°32'0 0.0
2018-May-07 13:30N 27°53' W 082°32'0 0.0
2018-May-07 12:54N 27°53' W 082°32'0 0.0
2018-May-07 12:30N 27°53' W 082°32'0 0.0
2018-May-07 12:00N 27°53' W 082°32'0 0.0
2018-May-07 11:30N 27°53' W 082°32'0 0.0
2018-May-07 11:00N 27°53' W 082°32'0 0.0
2018-May-07 10:30N 27°53' W 082°32'0 0.0
2018-May-07 10:00N 27°53' W 082°32'0 0.0
2018-May-07 09:30N 27°53' W 082°32'0 0.0
2018-May-07 09:00N 27°53' W 082°32'0 0.0
2018-May-07 08:28N 27°53' W 082°32'0 0.0
2018-May-07 08:00N 27°53' W 082°32'0 0.0
2018-May-07 07:30N 27°53' W 082°32'0 0.0
2018-May-07 07:00N 27°53' W 082°32'0 0.0
2018-May-07 04:09N 27°53' W 082°32'0 0.0
2018-May-07 03:48N 27°53' W 082°32'0 0.0
2018-May-07 02:45N 27°53' W 082°32'0 0.0
2018-May-07 02:24N 27°53' W 082°32'0 0.0
2018-May-07 01:42N 27°53' W 082°32'0 0.0
2018-May-07 01:16N 27°53' W 082°32'0 0.0
2018-May-07 00:59N 27°53' W 082°32'2 5.0
2018-May-07 00:30N 27°51' W 082°33'4 8.3
2018-May-07 00:00N 27°47' W 082°32'191 4.1
2018-May-05 01:36N 25°30' W 080°04'1 7.2
2018-May-05 01:30N 25°30' W 080°04'3 6.9
2018-May-05 01:00N 25°34' W 080°04'3 6.6
2018-May-05 00:30N 25°37' W 080°04'3 6.7
2018-May-05 00:00N 25°40' W 080°03'3 6.7
2018-May-04 23:30N 25°44' W 080°03'3 6.5
2018-May-04 23:00N 25°47' W 080°03'3 6.6
2018-May-04 22:30N 25°50' W 080°02'3 6.8
2018-May-04 22:00N 25°54' W 080°02'3 6.9
2018-May-04 21:30N 25°57' W 080°02'4 7.1
2018-May-04 21:00N 26°01' W 080°01'3 6.8
2018-May-04 20:30N 26°04' W 080°01'3 6.9
2018-May-04 20:00N 26°07' W 080°01'  
Track history (hours):
 
Tides and Currents Weather Stations Pressure Air Temp Water Temp Dewpoint Dewpoint Depression Visibility Wind Speed Wind Dir Waves Ship Positions

Amy E. Hebert

Owner: Gulf Coast Tugs, Inc., Larose, LA. More information available from US FCC via Universal Licensing System and Coast Guard Vessel Documentation Center.

Last reported at 2018-May-14 19:55 UTC. Time now 2018-Jul-22 22:04 UTC.
Position N 27°45' W 082°37'.
Warning: this ship's position is months out of date.

Length 35 m; draft 4 m.

MMSI: 367640860.

Date/timePositionNaut miles runAvg speedWind from/ knotsBaromVisibWave heightAir tempDewpointWater temp
2018-May-14 19:55N 27°45' W 082°37'1 2.1
2018-May-14 19:23N 27°46' W 082°38'5 0.4
2018-May-14 07:32N 27°41' W 082°37'1 4.3
2018-May-14 07:12N 27°42' W 082°37'1 4.1
2018-May-14 06:54N 27°43' W 082°37'2 3.8
2018-May-14 06:30N 27°45' W 082°37'1 2.5
2018-May-14 06:00N 27°46' W 082°38'0 0.1
2018-May-14 05:13N 27°46' W 082°38'3 7.3
2018-May-14 04:46N 27°47' W 082°35'2 8.6
2018-May-14 04:30N 27°50' W 082°34'3 7.0
2018-May-14 04:00N 27°53' W 082°33'1 1.2
2018-May-14 03:30N 27°53' W 082°32'0 0.0
2018-May-14 03:00N 27°53' W 082°32'0 0.0
2018-May-14 02:30N 27°53' W 082°32'0 0.0
2018-May-14 02:00N 27°53' W 082°32'0 0.0
2018-May-14 01:30N 27°53' W 082°32'0 0.0
2018-May-14 00:56N 27°53' W 082°32'0 0.0
2018-May-14 00:30N 27°53' W 082°32'0 0.1
2018-May-14 00:00N 27°53' W 082°32'0 0.0
2018-May-13 23:29N 27°53' W 082°32'0 0.0
2018-May-13 22:59N 27°53' W 082°32'0 0.0
2018-May-13 22:30N 27°53' W 082°32'0 0.0
2018-May-13 22:00N 27°53' W 082°32'0 0.0
2018-May-13 21:30N 27°53' W 082°32'0 0.0
2018-May-13 21:00N 27°53' W 082°32'0 0.0
2018-May-13 20:30N 27°53' W 082°32'0 0.0
2018-May-13 20:00N 27°53' W 082°32'0 0.1
2018-May-13 19:30N 27°53' W 082°32'0 0.0
2018-May-13 19:00N 27°53' W 082°32'0 0.0
2018-May-13 18:29N 27°53' W 082°32'0 0.0
2018-May-13 18:00N 27°53' W 082°32'0 0.0
2018-May-13 17:30N 27°53' W 082°32'0 0.4
2018-May-13 17:00N 27°53' W 082°33'611.1
2018-May-13 16:30N 27°48' W 082°34'4 0.1
2018-May-12 15:09N 27°45' W 082°31'1 4.0
2018-May-12 15:00N 27°46' W 082°31'2 3.5
2018-May-12 14:29N 27°47' W 082°33'2 3.6
2018-May-12 14:00N 27°48' W 082°34'2 3.7
2018-May-12 13:30N 27°50' W 082°34'2 3.7
2018-May-12 13:00N 27°52' W 082°33'1 2.6
2018-May-12 12:30N 27°53' W 082°33'0 0.2
2018-May-12 12:00N 27°53' W 082°33'0 0.0
2018-May-12 11:30N 27°53' W 082°33'0 0.0
2018-May-12 11:00N 27°53' W 082°33'0 0.0
2018-May-12 10:30N 27°53' W 082°33'0 0.0
2018-May-12 10:00N 27°53' W 082°33'0 0.6
2018-May-12 09:29N 27°53' W 082°32'0 0.0
2018-May-12 09:00N 27°53' W 082°32'0 0.0
2018-May-12 08:30N 27°53' W 082°32'0 0.0
2018-May-12 08:00N 27°53' W 082°32'0 0.0
2018-May-12 07:30N 27°53' W 082°32'0 0.0
2018-May-12 07:00N 27°53' W 082°32'0 0.0
2018-May-12 06:30N 27°53' W 082°32'0 0.0
2018-May-12 06:00N 27°53' W 082°32'0 0.0
2018-May-12 05:30N 27°53' W 082°32'0 0.0
2018-May-12 05:00N 27°53' W 082°32'0 0.0
2018-May-12 04:30N 27°53' W 082°32'0 0.0
2018-May-12 04:00N 27°53' W 082°32'0 0.0
2018-May-12 03:30N 27°53' W 082°32'0 0.0
2018-May-12 02:59N 27°53' W 082°32'0 0.0
2018-May-12 02:30N 27°53' W 082°32'0 0.0
2018-May-12 02:00N 27°53' W 082°32'0 0.0
2018-May-12 01:30N 27°53' W 082°32'0 0.0
2018-May-12 00:57N 27°53' W 082°32'0 0.0
2018-May-12 00:25N 27°53' W 082°32'0 0.0
2018-May-11 23:58N 27°53' W 082°32'0 0.0
2018-May-11 23:19N 27°53' W 082°32'0 0.0
2018-May-11 22:58N 27°53' W 082°32'0 0.0
2018-May-11 22:29N 27°53' W 082°32'0 0.0
2018-May-11 21:53N 27°53' W 082°32'0 0.0
2018-May-11 21:30N 27°53' W 082°32'0 0.0
2018-May-11 21:00N 27°53' W 082°32'2 3.8
2018-May-11 20:30N 27°52' W 082°33'2 4.3
2018-May-11 20:00N 27°50' W 082°34'2 4.1
2018-May-11 19:30N 27°48' W 082°34'2 4.3
2018-May-11 19:00N 27°46' W 082°36'2 0.7
2018-May-11 16:56N 27°46' W 082°38'0 0.0
2018-May-11 14:39N 27°46' W 082°38'0 0.4
2018-May-11 14:30N 27°46' W 082°38'3 5.2
2018-May-11 13:50N 27°47' W 082°35'2 5.2
2018-May-11 13:30N 27°49' W 082°34'3 5.1
2018-May-11 13:00N 27°52' W 082°33'2 3.3
2018-May-11 12:30N 27°53' W 082°33'0 0.7
2018-May-11 12:00N 27°53' W 082°32'0 0.3
2018-May-11 11:30N 27°53' W 082°32'0 0.3
2018-May-11 11:00N 27°53' W 082°32'0 0.0
2018-May-11 10:30N 27°53' W 082°32'0 0.1
2018-May-11 10:00N 27°53' W 082°32'0 0.0
2018-May-11 09:30N 27°53' W 082°32'0 0.0
2018-May-11 09:00N 27°53' W 082°32'0 0.0
2018-May-11 08:30N 27°53' W 082°32'0 0.0
2018-May-11 08:00N 27°53' W 082°32'0 0.0
2018-May-11 07:29N 27°53' W 082°32'0 0.0
2018-May-11 07:00N 27°53' W 082°32'0 0.0
2018-May-11 06:30N 27°53' W 082°32'0 0.0
2018-May-11 06:00N 27°53' W 082°32'0 0.0
2018-May-11 05:30N 27°53' W 082°32'0 0.0
2018-May-11 04:58N 27°53' W 082°32'0 0.0
2018-May-11 04:30N 27°53' W 082°32'0 0.0
2018-May-11 04:00N 27°53' W 082°32'0 0.0
2018-May-11 03:30N 27°53' W 082°32'0 0.0
2018-May-11 03:00N 27°53' W 082°32'0 0.0
2018-May-11 02:30N 27°53' W 082°32'0 0.0
2018-May-11 02:00N 27°53' W 082°32'0 0.0
2018-May-11 01:30N 27°53' W 082°32'0 0.0
2018-May-11 00:59N 27°53' W 082°32'0 0.0
2018-May-11 00:30N 27°53' W 082°32'0 0.0
2018-May-11 00:00N 27°53' W 082°32'0 0.0
2018-May-10 23:30N 27°53' W 082°32'0 0.0
2018-May-10 23:00N 27°53' W 082°32'0 0.1
2018-May-10 22:30N 27°53' W 082°32'5 9.7
2018-May-10 22:00N 27°49' W 082°34'4 4.0
2018-May-10 20:56N 27°46' W 082°37'3 7.9
2018-May-10 20:30N 27°48' W 082°34'5 9.6
2018-May-10 20:00N 27°52' W 082°33'1 2.5
2018-May-10 19:29N 27°53' W 082°32'0 0.0
2018-May-10 19:00N 27°53' W 082°32'0 0.0
2018-May-10 18:30N 27°53' W 082°32'0 0.0
2018-May-10 18:00N 27°53' W 082°32'0 0.0
2018-May-10 17:30N 27°53' W 082°32'0 0.0
2018-May-10 17:00N 27°53' W 082°32'0 0.0
2018-May-10 16:30N 27°53' W 082°32'0 0.0
2018-May-10 16:00N 27°53' W 082°32'0 0.1
2018-May-10 15:30N 27°53' W 082°32'0 0.0
2018-May-10 15:00N 27°53' W 082°32'0 0.7
2018-May-10 14:29N 27°53' W 082°33'0 0.0
2018-May-10 14:00N 27°53' W 082°33'0 0.0
2018-May-10 13:30N 27°53' W 082°33'0 0.9
2018-May-10 13:00N 27°53' W 082°32'0 0.0
2018-May-10 12:30N 27°53' W 082°32'0 0.0
2018-May-10 12:00N 27°53' W 082°32'0 0.0
2018-May-10 11:29N 27°53' W 082°32'0 0.0
2018-May-10 11:00N 27°53' W 082°32'0 0.0
2018-May-10 10:30N 27°53' W 082°32'4 6.9
2018-May-10 10:00N 27°50' W 082°34'4 9.0
2018-May-10 09:30N 27°46' W 082°36'2 0.2
2018-May-09 22:29N 27°44' W 082°37'5 9.5
2018-May-09 22:00N 27°48' W 082°34'510.4
2018-May-09 21:30N 27°53' W 082°33'0 0.1
2018-May-09 21:00N 27°53' W 082°33'4 7.5
2018-May-09 20:29N 27°50' W 082°34'4 7.9
2018-May-09 19:59N 27°46' W 082°36'1 1.0
2018-May-09 19:14N 27°46' W 082°37'3 7.3
2018-May-09 18:50N 27°48' W 082°34'2 6.7
2018-May-09 18:30N 27°50' W 082°34'4 7.6
2018-May-09 18:00N 27°53' W 082°33'0 0.4
2018-May-09 17:30N 27°53' W 082°32'0 0.0
2018-May-09 17:00N 27°53' W 082°32'0 0.0
2018-May-09 16:28N 27°53' W 082°32'0 0.0
2018-May-09 15:58N 27°53' W 082°32'0 0.1
2018-May-09 15:30N 27°53' W 082°32'0 0.0
2018-May-09 15:00N 27°53' W 082°32'0 0.0
2018-May-09 14:30N 27°53' W 082°32'0 0.0
2018-May-09 14:00N 27°53' W 082°32'0 0.2
2018-May-09 13:30N 27°53' W 082°32'0 0.0
2018-May-09 13:00N 27°53' W 082°32'0 0.1
2018-May-09 12:27N 27°53' W 082°32'0 0.3
2018-May-09 12:00N 27°53' W 082°32'0 0.1
2018-May-09 11:29N 27°53' W 082°32'0 0.0
2018-May-09 11:00N 27°53' W 082°32'0 0.0
2018-May-09 10:30N 27°53' W 082°32'0 0.0
2018-May-09 09:59N 27°53' W 082°32'0 0.0
2018-May-09 09:30N 27°53' W 082°32'0 0.0
2018-May-09 09:00N 27°53' W 082°32'0 0.0
2018-May-09 08:30N 27°53' W 082°32'0 0.0
2018-May-09 07:58N 27°53' W 082°32'0 0.0
2018-May-09 07:29N 27°53' W 082°32'0 0.0
2018-May-09 06:58N 27°53' W 082°32'0 0.0
2018-May-09 06:29N 27°53' W 082°32'0 0.0
2018-May-09 06:00N 27°53' W 082°32'0 0.0
2018-May-09 05:30N 27°53' W 082°32'0 0.0
2018-May-09 04:59N 27°53' W 082°32'1 2.4
2018-May-09 04:30N 27°52' W 082°33'4 7.2
2018-May-09 04:00N 27°49' W 082°34'5 0.9
2018-May-08 22:40N 27°44' W 082°37'2 9.5
2018-May-08 22:29N 27°46' W 082°37'4 9.1
2018-May-08 22:00N 27°50' W 082°34'4 7.8
2018-May-08 21:30N 27°53' W 082°32'0 0.1
2018-May-08 21:00N 27°53' W 082°32'0 0.0
2018-May-08 20:30N 27°53' W 082°32'0 0.0
2018-May-08 20:00N 27°53' W 082°32'0 0.0
2018-May-08 19:30N 27°53' W 082°32'0 0.1
2018-May-08 19:00N 27°53' W 082°32'0 0.1
2018-May-08 18:30N 27°53' W 082°32'0 0.0
2018-May-08 18:00N 27°53' W 082°32'0 0.2
2018-May-08 17:30N 27°53' W 082°32'0 0.1
2018-May-08 17:00N 27°53' W 082°32'0 0.0
2018-May-08 15:43N 27°53' W 082°32'0 0.0
2018-May-08 15:25N 27°53' W 082°32'0 0.0
2018-May-08 15:00N 27°53' W 082°32'0 0.1
2018-May-08 14:30N 27°53' W 082°32'0 0.0
2018-May-08 14:00N 27°53' W 082°32'0 0.0
2018-May-08 13:30N 27°53' W 082°32'0 0.0
2018-May-08 13:00N 27°53' W 082°32'0 0.0
2018-May-08 12:25N 27°53' W 082°32'0 0.0
2018-May-08 11:40N 27°53' W 082°32'0 0.0
2018-May-08 11:22N 27°53' W 082°32'0 0.1
2018-May-08 11:00N 27°53' W 082°32'0 0.3
2018-May-08 10:30N 27°53' W 082°32'0 0.1
2018-May-08 10:00N 27°53' W 082°32'0 0.0
2018-May-08 09:30N 27°53' W 082°32'0 0.0
2018-May-08 09:00N 27°53' W 082°32'0 0.0
2018-May-08 08:29N 27°53' W 082°32'0 0.0
2018-May-08 08:00N 27°53' W 082°32'0 0.0
2018-May-08 07:29N 27°53' W 082°32'0 0.0
2018-May-08 07:00N 27°53' W 082°32'0 0.0
2018-May-08 06:28N 27°53' W 082°32'0 0.0
2018-May-08 06:00N 27°53' W 082°32'0 0.0
2018-May-08 05:30N 27°53' W 082°32'0 0.0
2018-May-08 05:00N 27°53' W 082°32'0 0.0
2018-May-08 04:30N 27°53' W 082°32'0 0.0
2018-May-08 04:00N 27°53' W 082°32'0 0.0
2018-May-08 03:30N 27°53' W 082°32'0 0.0
2018-May-08 03:00N 27°53' W 082°32'0 0.0
2018-May-08 02:30N 27°53' W 082°32'0 0.0
2018-May-08 02:00N 27°53' W 082°32'0 0.0
2018-May-08 01:28N 27°53' W 082°32'0 0.0
2018-May-08 00:59N 27°53' W 082°32'0 0.0
2018-May-08 00:30N 27°53' W 082°32'0 0.0
2018-May-08 00:00N 27°53' W 082°32'0 0.0
2018-May-07 23:30N 27°53' W 082°32'0 0.0
2018-May-07 23:00N 27°53' W 082°32'0 0.0
2018-May-07 22:30N 27°53' W 082°32'0 0.0
2018-May-07 22:00N 27°53' W 082°32'0 0.0
2018-May-07 21:30N 27°53' W 082°32'0 0.0
2018-May-07 21:00N 27°53' W 082°32'0 0.0
2018-May-07 20:30N 27°53' W 082°32'0 0.0
2018-May-07 20:00N 27°53' W 082°32'0 0.0
2018-May-07 19:29N 27°53' W 082°32'0 0.0
2018-May-07 19:00N 27°53' W 082°32'0 0.0
2018-May-07 18:30N 27°53' W 082°32'0 0.0
2018-May-07 18:00N 27°53' W 082°32'0 0.0
2018-May-07 17:29N 27°53' W 082°32'0 0.0
2018-May-07 17:00N 27°53' W 082°32'0 0.0
2018-May-07 16:30N 27°53' W 082°32'0 0.0
2018-May-07 16:00N 27°53' W 082°32'0 0.0
2018-May-07 15:30N 27°53' W 082°32'0 0.0
2018-May-07 14:59N 27°53' W 082°32'0 0.0
2018-May-07 14:30N 27°53' W 082°32'0 0.0
2018-May-07 14:00N 27°53' W 082°32'0 0.0
2018-May-07 13:30N 27°53' W 082°32'0 0.0
2018-May-07 12:54N 27°53' W 082°32'0 0.0
2018-May-07 12:30N 27°53' W 082°32'0 0.0
2018-May-07 12:00N 27°53' W 082°32'0 0.0
2018-May-07 11:30N 27°53' W 082°32'0 0.0
2018-May-07 11:00N 27°53' W 082°32'0 0.0
2018-May-07 10:30N 27°53' W 082°32'0 0.0
2018-May-07 10:00N 27°53' W 082°32'0 0.0
2018-May-07 09:30N 27°53' W 082°32'0 0.0
2018-May-07 09:00N 27°53' W 082°32'0 0.0
2018-May-07 08:28N 27°53' W 082°32'0 0.0
2018-May-07 08:00N 27°53' W 082°32'0 0.0
2018-May-07 07:30N 27°53' W 082°32'0 0.0
2018-May-07 07:00N 27°53' W 082°32'0 0.0
2018-May-07 04:09N 27°53' W 082°32'0 0.0
2018-May-07 03:48N 27°53' W 082°32'0 0.0
2018-May-07 02:45N 27°53' W 082°32'0 0.0
2018-May-07 02:24N 27°53' W 082°32'0 0.0
2018-May-07 01:42N 27°53' W 082°32'0 0.0
2018-May-07 01:16N 27°53' W 082°32'0 0.0
2018-May-07 00:59N 27°53' W 082°32'2 5.0
2018-May-07 00:30N 27°51' W 082°33'4 8.3
2018-May-07 00:00N 27°47' W 082°32'191 4.1
2018-May-05 01:36N 25°30' W 080°04'1 7.2
2018-May-05 01:30N 25°30' W 080°04'3 6.9
2018-May-05 01:00N 25°34' W 080°04'3 6.6
2018-May-05 00:30N 25°37' W 080°04'3 6.7
2018-May-05 00:00N 25°40' W 080°03'3 6.7
2018-May-04 23:30N 25°44' W 080°03'3 6.5
2018-May-04 23:00N 25°47' W 080°03'3 6.6
2018-May-04 22:30N 25°50' W 080°02'3 6.8
2018-May-04 22:00N 25°54' W 080°02'3 6.9
2018-May-04 21:30N 25°57' W 080°02'4 7.1
2018-May-04 21:00N 26°01' W 080°01'3 6.8
2018-May-04 20:30N 26°04' W 080°01'3 6.9
2018-May-04 20:00N 26°07' W 080°01'  

Dump ship's entire track history